Time;durP1;ratioP1;P1;durP2;ratioP2;P2;SDS_P1;SDS_P2;PMS_P1;PMS_P2;Temp;Humidity;BMP_temperature;BMP_pressure;BME280_temperature;BME280_humidity;BME280_pressure;Samples;Min_cycle;Max_cycle;Signal;HPM_P1;HPM_P2
2022/03/21 00:02:26;;;;;;;12.40;7.57;;;1.80;31.90;;;;;;5082521;27;48029;-63
2022/03/21 00:04:53;;;;;;;17.25;7.60;;;1.70;32.20;;;;;;5083325;27;46524;-63
2022/03/21 00:07:19;;;;;;;15.23;8.30;;;1.70;32.20;;;;;;5089921;27;46434;-64
2022/03/21 00:09:45;;;;;;;17.30;8.47;;;1.60;32.20;;;;;;5082791;27;46465;-64
2022/03/21 00:12:13;;;;;;;13.27;7.57;;;1.40;32.00;;;;;;5082965;27;49027;-63
2022/03/21 00:14:41;;;;;;;14.63;8.25;;;1.20;31.90;;;;;;5081069;27;46285;-64
2022/03/21 00:17:07;;;;;;;14.15;8.32;;;1.10;32.50;;;;;;5083111;27;46318;-63
2022/03/21 00:19:33;;;;;;;12.80;7.93;;;0.90;32.60;;;;;;5073498;27;46531;-63
2022/03/21 00:21:58;;;;;;;15.80;9.17;;;0.90;32.80;;;;;;5111664;27;46401;-63
2022/03/21 00:24:24;;;;;;;14.47;8.00;;;0.90;32.80;;;;;;5083037;27;46413;-63
2022/03/21 00:26:50;;;;;;;12.90;7.33;;;0.80;32.90;;;;;;5092948;27;46441;-63
2022/03/21 00:29:16;;;;;;;15.60;8.50;;;0.70;32.90;;;;;;5081913;27;46398;-65
2022/03/21 00:31:41;;;;;;;14.80;7.77;;;0.70;32.90;;;;;;5082055;27;48819;-63
2022/03/21 00:34:07;;;;;;;16.33;8.27;;;0.80;33.10;;;;;;5073077;27;46425;-63
2022/03/21 00:36:34;;;;;;;16.63;9.23;;;0.80;32.90;;;;;;5083174;27;46399;-65
2022/03/21 00:39:00;;;;;;;13.75;8.50;;;0.90;32.90;;;;;;5083791;27;46418;-61
2022/03/21 00:41:28;;;;;;;16.08;9.05;;;0.90;32.90;;;;;;5091044;27;46234;-62
2022/03/21 00:43:54;;;;;;;14.27;8.02;;;0.90;32.90;;;;;;5071265;27;46433;-63
2022/03/21 00:46:20;;;;;;;16.60;8.80;;;1.00;33.00;;;;;;5082618;27;46295;-63
2022/03/21 00:48:45;;;;;;;14.13;8.40;;;1.00;33.20;;;;;;5081761;27;46449;-63
2022/03/21 00:51:11;;;;;;;15.83;8.67;;;1.00;33.30;;;;;;5081709;27;47928;-63
2022/03/21 00:53:37;;;;;;;16.37;9.27;;;0.90;33.30;;;;;;5085456;27;46485;-62
2022/03/21 00:56:03;;;;;;;16.80;9.23;;;0.90;33.50;;;;;;5095228;27;45946;-63
2022/03/21 00:58:29;;;;;;;15.77;8.73;;;0.90;33.70;;;;;;5084420;27;46288;-63
2022/03/21 01:00:55;;;;;;;16.80;8.80;;;0.90;33.80;;;;;;5084281;27;47934;-63
2022/03/21 01:03:21;;;;;;;17.05;9.10;;;0.90;33.90;;;;;;5093722;27;46332;-63
2022/03/21 01:05:47;;;;;;;14.33;7.60;;;0.80;34.00;;;;;;5083661;27;46427;-62
2022/03/21 01:08:12;;;;;;;14.97;7.70;;;0.80;34.10;;;;;;5092583;27;46369;-62
2022/03/21 01:10:38;;;;;;;13.77;8.40;;;0.80;34.10;;;;;;5082489;27;47890;-61
2022/03/21 01:13:04;;;;;;;13.27;8.17;;;0.70;34.00;;;;;;5083997;27;46479;-62
2022/03/21 01:15:30;;;;;;;19.40;8.27;;;0.70;34.10;;;;;;5083036;27;46344;-61
2022/03/21 01:17:57;;;;;;;12.68;7.88;;;0.70;34.00;;;;;;5081469;27;46446;-61
2022/03/21 01:20:24;;;;;;;12.55;7.57;;;0.60;34.20;;;;;;5083675;27;48079;-63
2022/03/21 01:22:50;;;;;;;13.73;8.15;;;0.60;35.50;;;;;;5082609;27;46276;-64
2022/03/21 01:25:17;;;;;;;15.68;8.43;;;0.50;34.30;;;;;;5082759;27;46573;-63
2022/03/21 01:27:43;;;;;;;14.23;8.13;;;0.50;34.40;;;;;;5111861;27;46092;-63
2022/03/21 01:30:11;;;;;;;13.57;7.30;;;0.40;34.40;;;;;;5080570;27;46424;-63
2022/03/21 01:32:42;;;;;;;14.75;8.45;;;0.30;34.50;;;;;;5081098;27;45918;-62
2022/03/21 01:35:08;;;;;;;15.00;8.45;;;0.30;34.50;;;;;;5072752;27;45804;-63
2022/03/21 01:37:34;;;;;;;20.02;9.20;;;0.40;34.60;;;;;;5089340;27;46400;-62
2022/03/21 01:40:00;;;;;;;15.10;8.93;;;0.40;34.50;;;;;;5080720;27;47485;-62
2022/03/21 01:42:25;;;;;;;13.60;7.93;;;0.40;34.60;;;;;;5069081;27;46406;-63
2022/03/21 01:44:52;;;;;;;14.63;8.33;;;0.40;34.70;;;;;;5081122;27;46452;-62
2022/03/21 01:47:18;;;;;;;13.07;7.80;;;0.30;34.80;;;;;;5081214;27;46367;-62
2022/03/21 01:49:45;;;;;;;16.63;9.13;;;0.30;34.80;;;;;;5095198;27;46690;-63
2022/03/21 01:52:10;;;;;;;15.07;8.25;;;0.30;34.80;;;;;;5081054;27;46317;-63
2022/03/21 01:57:22;;;;;;;15.40;8.82;;;0.40;35.00;;;;;;5090746;27;46261;-64
2022/03/21 01:59:49;;;;;;;14.00;8.10;;;0.40;35.20;;;;;;5089737;27;47968;-63
2022/03/21 02:02:15;;;;;;;17.80;9.77;;;0.30;35.10;;;;;;5094693;27;46398;-63
2022/03/21 02:04:42;;;;;;;12.38;7.50;;;0.30;35.30;;;;;;5085054;27;46486;-62
2022/03/21 02:07:08;;;;;;;13.68;8.15;;;0.20;35.40;;;;;;5083756;27;46438;-64
2022/03/21 02:09:34;;;;;;;15.95;7.95;;;0.10;35.30;;;;;;5083937;27;48686;-63
2022/03/21 02:12:00;;;;;;;13.10;7.50;;;0.00;35.50;;;;;;5084227;27;46471;-61
2022/03/21 02:14:25;;;;;;;15.13;7.87;;;-0.10;35.70;;;;;;5085109;27;46620;-64
2022/03/21 02:16:52;;;;;;;15.53;7.87;;;-0.20;35.90;;;;;;5084028;27;46454;-63
2022/03/21 02:19:36;;;;;;;12.73;7.15;;;-0.20;36.00;;;;;;5092586;27;46548;-63
2022/03/21 02:22:30;;;;;;;13.30;8.20;;;-0.20;36.00;;;;;;5073317;27;46486;-65
2022/03/21 02:25:28;;;;;;;12.95;6.93;;;-0.30;36.00;;;;;;5083514;27;46437;-62
2022/03/21 02:27:57;;;;;;;13.25;7.70;;;-0.20;36.10;;;;;;5042803;27;46517;-64
2022/03/21 02:30:26;;;;;;;14.43;7.75;;;-0.30;35.90;;;;;;5076094;27;48159;-64
2022/03/21 02:32:53;;;;;;;12.35;7.40;;;-0.30;36.00;;;;;;5084654;27;46800;-62
2022/03/21 02:35:20;;;;;;;14.55;8.30;;;-0.40;36.10;;;;;;5068779;27;46507;-63
2022/03/21 02:37:47;;;;;;;16.55;8.90;;;-0.40;36.20;;;;;;5084001;27;46470;-63
2022/03/21 02:40:14;;;;;;;14.73;8.60;;;-0.40;36.10;;;;;;5083228;27;48135;-64
2022/03/21 02:42:40;;;;;;;15.70;8.40;;;-0.40;36.10;;;;;;5084204;27;46541;-63
2022/03/21 02:45:06;;;;;;;15.87;8.00;;;-0.50;36.20;;;;;;5084026;27;46246;-63
2022/03/21 02:47:32;;;;;;;15.40;8.57;;;-0.60;36.40;;;;;;5084512;27;46351;-64
2022/03/21 02:50:00;;;;;;;13.75;8.20;;;-0.80;36.40;;;;;;5081854;27;47890;-64
2022/03/21 02:52:29;;;;;;;12.75;7.18;;;-0.90;36.70;;;;;;5091177;27;46374;-64
2022/03/21 02:54:55;;;;;;;14.15;7.90;;;-0.90;36.80;;;;;;5083211;27;46323;-63
2022/03/21 02:57:21;;;;;;;13.80;8.18;;;-0.90;36.90;;;;;;5085022;27;46686;-64
2022/03/21 02:59:47;;;;;;;12.00;6.97;;;-1.00;36.80;;;;;;5083657;27;47765;-65
2022/03/21 03:02:13;;;;;;;13.68;8.00;;;-0.90;36.80;;;;;;5083337;27;46567;-64
2022/03/21 03:04:39;;;;;;;10.90;6.63;;;-1.00;36.80;;;;;;5093638;27;46134;-64
2022/03/21 03:07:05;;;;;;;17.83;8.45;;;-1.00;36.90;;;;;;5078915;27;46327;-65
2022/03/21 03:09:31;;;;;;;15.90;8.70;;;-1.00;36.90;;;;;;5075032;27;47206;-64
2022/03/21 03:11:56;;;;;;;16.90;8.10;;;-1.00;36.90;;;;;;5106886;27;46575;-64
2022/03/21 03:14:22;;;;;;;12.90;8.60;;;-1.00;36.90;;;;;;5079243;27;46442;-65
2022/03/21 03:16:48;;;;;;;19.17;9.03;;;-1.00;36.90;;;;;;5108227;27;46499;-64
2022/03/21 03:19:14;;;;;;;14.40;7.73;;;-1.00;36.90;;;;;;5104564;27;46515;-66
2022/03/21 03:21:43;;;;;;;14.93;8.27;;;-0.90;36.90;;;;;;5089177;27;46423;-64
2022/03/21 03:24:10;;;;;;;16.23;8.98;;;-1.00;36.90;;;;;;5093356;27;46369;-63
2022/03/21 03:26:37;;;;;;;11.90;7.15;;;-0.90;37.00;;;;;;5083455;27;46529;-63
2022/03/21 03:29:03;;;;;;;16.35;8.73;;;-1.00;37.00;;;;;;5091731;27;46478;-64
2022/03/21 03:31:29;;;;;;;14.57;7.90;;;-1.00;37.00;;;;;;5084063;27;46334;-66
2022/03/21 03:33:55;;;;;;;14.25;8.25;;;-1.00;37.10;;;;;;5083011;27;46317;-66
2022/03/21 03:36:21;;;;;;;14.70;7.95;;;-1.10;37.20;;;;;;5082434;27;46390;-66
2022/03/21 03:38:48;;;;;;;15.32;7.15;;;-1.20;37.20;;;;;;5085090;27;47845;-62
2022/03/21 03:41:15;;;;;;;15.45;7.82;;;-1.20;37.40;;;;;;5081632;27;46504;-61
2022/03/21 03:43:43;;;;;;;15.52;8.30;;;-1.20;37.40;;;;;;5093215;27;46549;-64
2022/03/21 03:46:09;;;;;;;12.10;7.70;;;-1.30;37.40;;;;;;5084985;27;46665;-64
2022/03/21 03:48:35;;;;;;;16.67;7.88;;;-1.40;37.50;;;;;;5081919;27;47754;-63
2022/03/21 03:51:01;;;;;;;16.13;8.88;;;-1.40;37.40;;;;;;5084965;27;46495;-62
2022/03/21 03:53:27;;;;;;;16.20;7.75;;;-1.30;37.50;;;;;;5085326;27;46292;-64
2022/03/21 03:55:53;;;;;;;15.77;8.33;;;-1.30;37.30;;;;;;5084138;27;46580;-63
2022/03/21 03:58:18;;;;;;;15.60;8.73;;;-1.30;37.40;;;;;;5084593;27;47627;-63
2022/03/21 04:00:46;;;;;;;11.97;7.20;;;-1.30;37.50;;;;;;5081819;27;46383;-64
2022/03/21 04:05:56;;;;;;;14.85;7.78;;;-1.30;37.60;;;;;;5087904;27;46407;-64
2022/03/21 04:08:22;;;;;;;16.47;8.03;;;-1.40;37.50;;;;;;5083300;27;47869;-64
2022/03/21 04:10:48;;;;;;;14.10;7.70;;;-1.40;37.70;;;;;;5095149;27;46361;-64
2022/03/21 04:13:13;;;;;;;13.97;7.30;;;-1.50;37.80;;;;;;5094521;27;46309;-64
2022/03/21 04:15:39;;;;;;;16.70;7.43;;;-1.60;37.90;;;;;;5084233;27;46369;-64
2022/03/21 04:18:05;;;;;;;18.50;8.10;;;-1.60;38.00;;;;;;5082413;27;47202;-64
2022/03/21 04:20:32;;;;;;;13.73;8.00;;;-1.70;38.20;;;;;;5082357;27;46680;-64
2022/03/21 04:23:01;;;;;;;20.30;8.90;;;-1.80;38.20;;;;;;5083344;27;46417;-62
2022/03/21 04:25:27;;;;;;;14.77;7.80;;;-1.80;38.30;;;;;;5083431;27;46415;-64
2022/03/21 04:27:53;;;;;;;13.63;7.95;;;-1.80;38.30;;;;;;5081610;27;47795;-65
2022/03/21 04:30:20;;;;;;;15.53;7.67;;;-1.90;38.40;;;;;;5071235;27;46366;-64
2022/03/21 04:32:46;;;;;;;17.58;8.85;;;-2.00;38.30;;;;;;5092634;27;46381;-64
2022/03/21 04:35:12;;;;;;;16.80;8.00;;;-1.90;38.30;;;;;;5082737;27;46128;-64
2022/03/21 04:37:38;;;;;;;18.13;8.97;;;-1.80;38.30;;;;;;5082518;27;48897;-63
2022/03/21 04:40:07;;;;;;;20.48;9.05;;;-1.80;38.20;;;;;;5093667;27;46506;-64
2022/03/21 04:42:37;;;;;;;16.83;8.60;;;-1.70;38.30;;;;;;5108585;27;46369;-62
2022/03/21 04:45:04;;;;;;;15.80;8.57;;;-1.70;38.20;;;;;;5082456;27;46368;-62
2022/03/21 04:47:31;;;;;;;15.90;8.40;;;-1.70;38.10;;;;;;5080958;27;47808;-62
2022/03/21 04:49:57;;;;;;;25.08;9.07;;;-1.60;38.30;;;;;;5074858;27;46327;-66
2022/03/21 04:52:23;;;;;;;15.30;9.25;;;-1.60;38.00;;;;;;5082010;27;46473;-63
2022/03/21 04:54:48;;;;;;;14.93;8.03;;;-1.60;38.20;;;;;;5096034;27;46439;-63
2022/03/21 04:57:14;;;;;;;25.07;8.20;;;-1.50;38.30;;;;;;5071983;27;48768;-65
2022/03/21 04:59:40;;;;;;;13.63;7.70;;;-1.50;38.30;;;;;;5083173;27;46672;-64
2022/03/21 05:02:06;;;;;;;15.87;8.70;;;-1.40;38.30;;;;;;5082611;27;46392;-64
2022/03/21 05:04:34;;;;;;;14.93;8.15;;;-1.40;38.40;;;;;;5082430;27;46461;-63
2022/03/21 05:07:00;;;;;;;15.70;8.10;;;-1.50;38.40;;;;;;5081157;27;48781;-63
2022/03/21 05:09:26;;;;;;;15.65;8.25;;;-1.50;38.40;;;;;;5082291;27;46112;-64
2022/03/21 05:11:52;;;;;;;14.57;7.77;;;-1.50;38.60;;;;;;5070566;27;45904;-66
2022/03/21 05:14:19;;;;;;;17.15;7.63;;;-1.50;38.60;;;;;;5095597;27;46545;-64
2022/03/21 05:16:46;;;;;;;19.95;8.55;;;-1.50;38.70;;;;;;5071895;27;48036;-63
2022/03/21 05:19:12;;;;;;;11.90;7.00;;;-1.60;38.80;;;;;;5069914;27;46403;-64
2022/03/21 05:21:39;;;;;;;15.20;6.90;;;-1.80;38.90;;;;;;5064894;27;46394;-62
2022/03/21 05:32:17;;;;;;;16.98;9.07;;;-1.80;39.20;;;;;;5087970;27;46270;-64
2022/03/21 05:37:27;;;;;;;19.10;7.70;;;-1.70;39.00;;;;;;5094527;27;46326;-63
2022/03/21 05:42:37;;;;;;;17.00;9.13;;;-1.40;39.30;;;;;;5088780;27;46266;-64
2022/03/21 05:45:02;;;;;;;13.70;7.70;;;-1.30;39.10;;;;;;5081811;27;46344;-63
2022/03/21 05:47:28;;;;;;;14.73;7.80;;;-1.20;39.10;;;;;;5083081;27;46383;-64
2022/03/21 05:49:54;;;;;;;16.77;8.60;;;-1.10;39.00;;;;;;5072263;27;46430;-63
2022/03/21 05:52:20;;;;;;;14.70;8.68;;;-1.00;38.80;;;;;;5081140;27;46475;-64
2022/03/21 05:54:46;;;;;;;15.73;8.70;;;-0.90;39.00;;;;;;5094542;27;46456;-64
2022/03/21 05:57:11;;;;;;;14.77;8.90;;;-0.80;38.90;;;;;;5081371;27;48707;-64
2022/03/21 06:02:27;;;;;;;14.70;8.55;;;-0.70;38.80;;;;;;5091362;27;46404;-66
2022/03/21 06:04:53;;;;;;;14.32;8.50;;;-0.60;39.00;;;;;;5090444;27;45815;-66
2022/03/21 06:07:19;;;;;;;13.05;8.07;;;-0.60;38.90;;;;;;5082186;27;48036;-66
2022/03/21 06:09:45;;;;;;;12.97;8.23;;;-0.60;38.90;;;;;;5082499;27;45876;-66
2022/03/21 06:12:11;;;;;;;19.87;8.37;;;-0.60;39.00;;;;;;5081114;27;46383;-67
2022/03/21 06:14:37;;;;;;;18.42;9.57;;;-0.60;39.00;;;;;;5088199;27;46450;-66
2022/03/21 06:17:03;;;;;;;30.83;14.40;;;-0.50;39.10;;;;;;5084777;27;48096;-62
2022/03/21 06:19:29;;;;;;;21.17;11.83;;;-0.50;39.00;;;;;;5080620;27;46275;-64
2022/03/21 06:21:54;;;;;;;17.90;9.83;;;-0.40;39.00;;;;;;5084470;27;46405;-63
2022/03/21 06:24:20;;;;;;;19.03;9.83;;;-0.30;39.00;;;;;;5079940;27;46372;-63
2022/03/21 06:26:46;;;;;;;18.03;9.53;;;-0.20;39.00;;;;;;5082160;27;48147;-63
2022/03/21 06:29:11;;;;;;;14.90;8.43;;;0.00;38.80;;;;;;5082781;27;46592;-63
2022/03/21 06:31:38;;;;;;;19.90;10.20;;;0.20;38.50;;;;;;5082106;27;46367;-64
2022/03/21 06:34:03;;;;;;;19.95;9.68;;;0.40;38.40;;;;;;5080372;27;46621;-64
2022/03/21 06:36:30;;;;;;;17.23;8.57;;;0.50;38.70;;;;;;5082025;27;47773;-61
2022/03/21 06:38:55;;;;;;;16.80;8.68;;;0.70;38.50;;;;;;5082286;27;46580;-64
2022/03/21 06:41:21;;;;;;;18.97;10.03;;;1.00;38.50;;;;;;5076022;27;46334;-63
2022/03/21 06:43:47;;;;;;;26.35;9.40;;;1.30;38.30;;;;;;5079910;27;46448;-62
2022/03/21 06:46:13;;;;;;;17.20;10.40;;;1.40;38.10;;;;;;5079856;27;49076;-64
2022/03/21 06:48:38;;;;;;;20.43;10.57;;;1.60;38.00;;;;;;5075597;27;46195;-64
2022/03/21 06:51:04;;;;;;;24.27;12.40;;;1.90;38.30;;;;;;5083821;27;46557;-62
2022/03/21 06:53:30;;;;;;;24.93;11.17;;;2.20;38.20;;;;;;5072460;27;46246;-62
2022/03/21 06:55:55;;;;;;;19.17;10.27;;;2.40;38.20;;;;;;5094506;27;47494;-64
2022/03/21 06:58:21;;;;;;;18.87;10.33;;;2.60;38.10;;;;;;5081211;27;46529;-64
2022/03/21 07:00:47;;;;;;;29.17;10.50;;;2.70;38.00;;;;;;5093457;27;46442;-64
2022/03/21 07:03:17;;;;;;;27.33;10.50;;;3.00;37.90;;;;;;5083995;27;46530;-63
2022/03/21 07:05:43;;;;;;;18.17;9.52;;;3.20;37.80;;;;;;5081847;27;48912;-64
2022/03/21 07:08:09;;;;;;;21.70;11.95;;;3.30;37.70;;;;;;5072785;27;46349;-61
2022/03/21 07:10:35;;;;;;;24.53;12.90;;;3.50;37.70;;;;;;5083436;27;46409;-62
2022/03/21 07:13:02;;;;;;;44.43;21.00;;;3.80;37.60;;;;;;5082288;27;46762;-64
2022/03/21 07:15:29;;;;;;;27.98;14.77;;;3.90;37.40;;;;;;5082983;27;47828;-63
2022/03/21 07:17:58;;;;;;;26.20;13.15;;;4.20;37.60;;;;;;5072492;27;46505;-64
2022/03/21 07:20:25;;;;;;;22.85;11.27;;;4.40;37.40;;;;;;5082059;27;46390;-62
2022/03/21 07:22:52;;;;;;;22.90;11.10;;;4.70;37.20;;;;;;5095977;27;46482;-64
2022/03/21 07:25:19;;;;;;;19.25;10.65;;;5.10;37.10;;;;;;5084306;27;47217;-63
2022/03/21 07:27:45;;;;;;;16.83;10.02;;;5.40;36.80;;;;;;5081711;27;46260;-62
2022/03/21 07:30:14;;;;;;;19.52;10.40;;;5.70;36.40;;;;;;5082425;27;46726;-64
2022/03/21 07:32:41;;;;;;;24.73;11.27;;;6.00;36.00;;;;;;5069456;27;46571;-64
2022/03/21 07:35:07;;;;;;;20.83;11.40;;;6.30;36.20;;;;;;5075911;27;48978;-63
2022/03/21 07:37:49;;;;;;;21.93;10.10;;;6.50;36.40;;;;;;5083149;27;46752;-64
2022/03/21 07:40:16;;;;;;;21.10;11.50;;;6.60;36.50;;;;;;5097110;27;46354;-64
2022/03/21 07:42:45;;;;;;;29.33;12.57;;;6.60;36.50;;;;;;5087774;27;46624;-65
2022/03/21 07:47:57;;;;;;;20.20;11.77;;;6.80;36.60;;;;;;5093826;27;46432;-63
2022/03/21 07:50:23;;;;;;;22.10;12.10;;;6.90;36.40;;;;;;5082721;27;46591;-63
2022/03/21 07:52:50;;;;;;;20.53;11.30;;;6.90;36.20;;;;;;5081916;27;46902;-64
2022/03/21 07:55:16;;;;;;;21.40;11.77;;;7.10;36.10;;;;;;5083903;27;49012;-64
2022/03/21 07:57:42;;;;;;;20.53;10.97;;;7.10;35.80;;;;;;5083129;27;46439;-64
2022/03/21 08:00:11;;;;;;;18.47;11.13;;;7.10;35.80;;;;;;5084054;27;46530;-64
2022/03/21 08:02:37;;;;;;;22.83;12.03;;;6.80;36.60;;;;;;5083588;27;46430;-63
2022/03/21 08:05:04;;;;;;;19.47;11.20;;;7.00;36.00;;;;;;5079360;27;47808;-65
2022/03/21 08:07:32;;;;;;;22.80;13.47;;;7.20;35.10;;;;;;5083377;27;46319;-63
2022/03/21 08:09:58;;;;;;;19.47;11.63;;;7.50;34.70;;;;;;5083774;27;46484;-63
2022/03/21 08:12:24;;;;;;;19.43;12.20;;;7.50;34.40;;;;;;5080717;27;46712;-64
2022/03/21 08:14:51;;;;;;;21.10;12.27;;;7.40;34.70;;;;;;5083005;27;46531;-65
2022/03/21 08:17:18;;;;;;;24.17;12.40;;;7.60;34.70;;;;;;5088269;27;46691;-64
2022/03/21 08:19:44;;;;;;;23.00;12.17;;;7.50;34.30;;;;;;5076565;27;46299;-63
2022/03/21 08:22:10;;;;;;;19.67;11.90;;;7.40;34.50;;;;;;5082333;27;46412;-65
2022/03/21 08:24:36;;;;;;;21.67;11.80;;;7.70;34.00;;;;;;5082679;27;47965;-65
2022/03/21 08:27:05;;;;;;;19.27;11.70;;;8.10;33.30;;;;;;5081700;27;46604;-65
2022/03/21 08:29:31;;;;;;;20.50;12.13;;;8.20;33.10;;;;;;5074755;27;46438;-64
2022/03/21 08:31:57;;;;;;;26.87;11.53;;;8.40;32.60;;;;;;5076883;27;46493;-66
2022/03/21 08:34:23;;;;;;;22.10;11.50;;;8.60;32.20;;;;;;5090905;27;48053;-64
2022/03/21 08:36:49;;;;;;;27.23;11.60;;;8.70;31.80;;;;;;5090306;27;45883;-66
2022/03/21 08:39:15;;;;;;;20.00;11.60;;;8.80;31.70;;;;;;5081744;27;46522;-65
2022/03/21 08:41:40;;;;;;;29.23;12.60;;;8.70;31.90;;;;;;5111413;27;46439;-65
2022/03/21 08:44:07;;;;;;;19.83;12.53;;;8.80;32.10;;;;;;5081640;27;47804;-64
2022/03/21 08:46:33;;;;;;;19.07;11.47;;;8.90;31.10;;;;;;5087679;27;46388;-65
2022/03/21 08:51:43;;;;;;;31.43;12.33;;;9.00;29.50;;;;;;5093991;27;46394;-65
2022/03/21 08:54:10;;;;;;;19.17;10.10;;;9.00;29.50;;;;;;5083355;27;48111;-65
2022/03/21 08:56:35;;;;;;;22.67;11.27;;;9.10;29.30;;;;;;5081475;27;46398;-64
2022/03/21 08:59:01;;;;;;;19.97;11.30;;;9.10;29.10;;;;;;5080935;27;46428;-64
2022/03/21 09:01:28;;;;;;;20.27;10.53;;;9.30;29.20;;;;;;5080788;27;46326;-63
2022/03/21 09:03:54;;;;;;;18.43;11.50;;;9.40;29.20;;;;;;5082467;27;48860;-65
2022/03/21 09:06:20;;;;;;;17.50;10.93;;;9.50;28.50;;;;;;5080578;27;46388;-64
2022/03/21 09:08:49;;;;;;;25.73;11.63;;;9.40;28.60;;;;;;5080497;27;46383;-64
2022/03/21 09:11:17;;;;;;;18.33;10.60;;;9.30;28.40;;;;;;5079366;27;46505;-64
2022/03/21 09:13:44;;;;;;;18.90;10.93;;;9.30;28.70;;;;;;5083626;27;48821;-64
2022/03/21 09:16:11;;;;;;;20.50;10.37;;;9.30;29.00;;;;;;5084864;27;46613;-64
2022/03/21 09:18:37;;;;;;;20.73;11.53;;;9.50;29.10;;;;;;5083479;27;46773;-64
2022/03/21 09:21:03;;;;;;;19.70;10.53;;;9.60;29.00;;;;;;5082189;27;46404;-63
2022/03/21 09:23:28;;;;;;;24.20;10.80;;;9.60;28.60;;;;;;5081189;27;46423;-64
2022/03/21 09:25:55;;;;;;;16.67;10.50;;;9.50;28.70;;;;;;5082468;27;46453;-64
2022/03/21 09:28:28;;;;;;;19.97;11.23;;;9.50;28.20;;;;;;5080759;27;46463;-63
2022/03/21 09:30:55;;;;;;;18.27;10.53;;;9.60;28.30;;;;;;5081132;27;46544;-63
2022/03/21 09:33:22;;;;;;;18.80;11.20;;;9.60;28.50;;;;;;5081852;27;46703;-63
2022/03/21 09:35:47;;;;;;;19.07;11.50;;;9.60;27.90;;;;;;5099522;27;46432;-64
2022/03/21 09:38:14;;;;;;;17.73;10.40;;;9.60;28.00;;;;;;5081413;27;46347;-64
2022/03/21 09:40:44;;;;;;;15.57;10.17;;;9.80;27.70;;;;;;5086437;27;46550;-64
2022/03/21 09:43:11;;;;;;;17.90;10.27;;;10.00;26.80;;;;;;5079542;27;47776;-65
2022/03/21 09:45:38;;;;;;;21.27;11.17;;;10.20;26.80;;;;;;5081094;27;45956;-65
2022/03/21 09:48:12;;;;;;;22.70;11.50;;;10.40;26.40;;;;;;5081434;27;46481;-64
2022/03/21 09:50:44;;;;;;;19.57;11.50;;;10.50;26.50;;;;;;5081678;27;46516;-63
2022/03/21 09:53:12;;;;;;;21.33;11.57;;;10.60;26.60;;;;;;5071104;27;48106;-63
2022/03/21 09:55:39;;;;;;;21.73;11.97;;;10.80;26.70;;;;;;5080855;27;46475;-64
2022/03/21 09:58:05;;;;;;;18.60;10.90;;;10.90;25.90;;;;;;5080562;27;46429;-63
2022/03/21 10:00:32;;;;;;;19.27;10.80;;;10.80;25.40;;;;;;5080791;27;46699;-64
2022/03/21 10:02:58;;;;;;;16.20;10.57;;;11.00;25.40;;;;;;5080895;27;47216;-63
2022/03/21 10:05:42;;;;;;;24.80;12.47;;;11.20;25.30;;;;;;5081905;27;46486;-64
2022/03/21 10:08:18;;;;;;;23.00;11.67;;;11.40;24.90;;;;;;5091273;27;46415;-65
2022/03/21 10:11:04;;;;;;;19.30;11.63;;;11.50;25.10;;;;;;5088784;27;46530;-63
2022/03/21 10:13:35;;;;;;;17.57;10.53;;;11.70;24.80;;;;;;5081909;27;47379;-64
2022/03/21 10:16:11;;;;;;;24.80;12.07;;;11.60;24.50;;;;;;5081732;27;46260;-64
2022/03/21 10:18:39;;;;;;;19.63;11.00;;;11.40;24.30;;;;;;5088935;27;46408;-65
2022/03/21 10:21:16;;;;;;;21.10;12.57;;;11.50;24.40;;;;;;5069029;27;46736;-64
2022/03/21 10:23:44;;;;;;;20.33;11.53;;;11.70;24.50;;;;;;5083052;27;49010;-64
2022/03/21 10:26:29;;;;;;;18.20;11.60;;;12.00;24.30;;;;;;5083555;27;46403;-64
2022/03/21 10:29:01;;;;;;;20.87;12.80;;;12.10;24.10;;;;;;5085588;27;46272;-65
2022/03/21 10:31:37;;;;;;;18.17;11.77;;;12.10;23.90;;;;;;5076898;27;46648;-65
2022/03/21 10:34:08;;;;;;;25.00;11.97;;;12.00;23.70;;;;;;5081166;27;48817;-63
2022/03/21 10:36:34;;;;;;;23.63;13.03;;;12.10;23.50;;;;;;5093706;27;46552;-66
2022/03/21 10:39:11;;;;;;;29.73;12.30;;;12.30;23.50;;;;;;5085864;27;46437;-65
2022/03/21 10:41:39;;;;;;;21.90;11.37;;;12.20;23.20;;;;;;5072855;27;46515;-63
2022/03/21 10:44:06;;;;;;;25.43;11.40;;;11.90;22.60;;;;;;5084511;27;48126;-64
2022/03/21 10:46:32;;;;;;;19.40;12.40;;;11.80;22.90;;;;;;5086299;27;46269;-64
2022/03/21 10:49:01;;;;;;;20.53;11.97;;;11.70;22.60;;;;;;5096215;27;46353;-63
2022/03/21 10:51:55;;;;;;;16.77;10.57;;;11.80;22.90;;;;;;5084203;27;46486;-64
2022/03/21 10:54:48;;;;;;;22.63;12.77;;;12.00;22.80;;;;;;5076259;27;48086;-65
2022/03/21 10:57:32;;;;;;;17.60;11.23;;;12.20;22.70;;;;;;5095532;27;46424;-64
2022/03/21 11:00:24;;;;;;;20.63;12.80;;;12.30;22.60;;;;;;5085801;27;46480;-64
2022/03/21 11:02:52;;;;;;;21.50;12.53;;;12.10;21.80;;;;;;5074188;27;46017;-64
2022/03/21 11:05:19;;;;;;;20.87;11.97;;;12.10;21.30;;;;;;5084827;27;46554;-63
2022/03/21 11:07:49;;;;;;;22.90;12.53;;;12.20;22.00;;;;;;5081378;27;46430;-64
2022/03/21 11:10:15;;;;;;;18.70;12.80;;;12.40;21.90;;;;;;5077211;27;46369;-65
2022/03/21 11:12:45;;;;;;;20.27;12.43;;;12.30;21.70;;;;;;5084263;27;46409;-65
2022/03/21 11:15:13;;;;;;;20.33;12.47;;;12.10;21.80;;;;;;5083790;27;47851;-66
2022/03/21 11:17:40;;;;;;;23.40;13.30;;;12.20;21.40;;;;;;5084190;27;46442;-66
2022/03/21 11:20:07;;;;;;;23.00;12.03;;;12.40;21.30;;;;;;5082793;27;46323;-67
2022/03/21 11:22:34;;;;;;;18.40;11.27;;;12.60;21.40;;;;;;5085905;27;46361;-63
2022/03/21 11:25:17;;;;;;;22.30;11.43;;;12.70;21.40;;;;;;5080310;27;47705;-66
2022/03/21 11:28:08;;;;;;;20.53;12.93;;;12.60;20.90;;;;;;5071310;27;46383;-66
2022/03/21 11:30:41;;;;;;;22.73;12.30;;;12.50;20.90;;;;;;5085180;27;46523;-66
2022/03/21 11:33:41;;;;;;;25.27;13.00;;;12.50;20.90;;;;;;5087541;27;46404;-66
2022/03/21 11:36:11;;;;;;;19.83;12.33;;;12.60;20.80;;;;;;5092687;27;47993;-66
2022/03/21 11:38:45;;;;;;;20.57;12.30;;;12.60;19.70;;;;;;5111847;27;46569;-65
2022/03/21 11:41:21;;;;;;;21.93;12.20;;;12.60;19.80;;;;;;5096815;27;46723;-66
2022/03/21 11:44:14;;;;;;;20.60;11.33;;;12.70;20.10;;;;;;5083202;27;46510;-64
2022/03/21 11:46:42;;;;;;;23.67;12.60;;;12.80;19.90;;;;;;5106823;27;48275;-65
2022/03/21 11:49:20;;;;;;;19.37;11.47;;;12.80;20.30;;;;;;5083056;27;46473;-65
2022/03/21 11:51:55;;;;;;;18.47;12.00;;;12.70;19.90;;;;;;5090969;27;46432;-65
2022/03/21 11:54:27;;;;;;;26.27;13.23;;;12.80;19.90;;;;;;5085483;27;46496;-65
2022/03/21 11:56:57;;;;;;;17.97;10.30;;;12.90;19.80;;;;;;5084004;27;48661;-64
2022/03/21 11:59:32;;;;;;;20.90;12.37;;;12.80;19.80;;;;;;5082134;27;46381;-64
2022/03/21 12:01:59;;;;;;;21.30;11.87;;;12.70;19.50;;;;;;5094680;27;46516;-63
2022/03/21 12:04:24;;;;;;;16.93;11.07;;;12.80;19.90;;;;;;5111490;27;46565;-64
2022/03/21 12:06:56;;;;;;;19.00;11.40;;;12.90;19.80;;;;;;5083875;27;48055;-65
2022/03/21 12:09:22;;;;;;;20.17;11.27;;;12.90;19.50;;;;;;5071130;27;46586;-65
2022/03/21 12:11:48;;;;;;;17.37;10.43;;;12.90;19.50;;;;;;5071863;27;46375;-65
2022/03/21 12:14:23;;;;;;;19.03;11.07;;;12.90;19.00;;;;;;5093546;27;46388;-65
2022/03/21 12:17:11;;;;;;;18.03;11.20;;;13.00;18.40;;;;;;5081831;27;47471;-65
2022/03/21 12:19:58;;;;;;;22.57;11.50;;;13.00;18.40;;;;;;5075434;27;46507;-63
2022/03/21 12:22:43;;;;;;;18.23;11.10;;;13.10;18.50;;;;;;5097768;27;46450;-66
2022/03/21 12:25:16;;;;;;;19.97;11.57;;;13.30;18.80;;;;;;5081333;27;46670;-65
2022/03/21 12:27:57;;;;;;;20.50;11.03;;;13.30;17.70;;;;;;5072467;27;49014;-65
2022/03/21 12:30:31;;;;;;;18.90;10.87;;;13.20;18.10;;;;;;5089973;27;46567;-66
2022/03/21 12:33:10;;;;;;;18.83;10.87;;;13.20;17.60;;;;;;5106578;27;46291;-65
2022/03/21 12:35:42;;;;;;;25.70;11.07;;;13.10;17.50;;;;;;5074694;27;46414;-65
2022/03/21 12:38:22;;;;;;;20.73;10.67;;;13.30;18.10;;;;;;5084033;27;46561;-64
2022/03/21 12:40:49;;;;;;;26.10;10.33;;;13.30;17.70;;;;;;5087623;27;46416;-64
2022/03/21 12:43:20;;;;;;;20.27;10.47;;;13.40;17.70;;;;;;5109958;27;46274;-65
2022/03/21 12:45:49;;;;;;;18.17;10.47;;;13.30;16.70;;;;;;5083084;27;45926;-66
2022/03/21 12:48:17;;;;;;;16.23;10.03;;;13.20;17.20;;;;;;5082070;27;47914;-65
2022/03/21 12:50:47;;;;;;;19.60;10.47;;;13.20;17.00;;;;;;5081819;27;46397;-65
2022/03/21 12:53:18;;;;;;;14.60;9.20;;;13.30;17.10;;;;;;5082939;27;46480;-65
2022/03/21 12:55:46;;;;;;;19.40;10.37;;;13.30;17.00;;;;;;5082722;27;46593;-65
2022/03/21 12:58:15;;;;;;;15.03;9.10;;;13.40;16.10;;;;;;5083465;27;48607;-65
2022/03/21 13:00:43;;;;;;;17.20;10.67;;;13.30;16.10;;;;;;5091206;27;45923;-64
2022/03/21 13:03:12;;;;;;;15.97;10.20;;;13.30;16.00;;;;;;5088109;27;46358;-65
2022/03/21 13:11:52;;;;;;;12.97;8.73;;;13.30;15.50;;;;;;5093755;27;46681;-65
2022/03/21 13:14:19;;;;;;;15.47;9.27;;;13.40;15.70;;;;;;5087312;27;46547;-66
2022/03/21 13:17:03;;;;;;;16.10;10.10;;;13.40;15.60;;;;;;5075678;27;45912;-66